createdAt,value
2022-10-11T00:00:58.418Z,92
2022-10-11T00:02:59.474Z,86
2022-10-11T00:05:58.367Z,105
2022-10-11T00:07:58.411Z,101
2022-10-11T00:10:58.357Z,86
2022-10-11T00:12:58.389Z,113
2022-10-11T00:14:58.394Z,112
2022-10-11T00:18:01.072Z,96
2022-10-11T00:19:58.427Z,121
2022-10-11T00:22:58.397Z,161
2022-10-11T00:25:58.372Z,130
2022-10-11T00:27:58.383Z,86
2022-10-11T00:30:58.394Z,113
2022-10-11T00:33:58.399Z,98
2022-10-11T00:35:58.424Z,89
2022-10-11T00:38:58.387Z,108
2022-10-11T00:41:58.367Z,137
2022-10-11T00:43:58.384Z,125
2022-10-11T00:45:58.376Z,106
2022-10-11T00:47:58.380Z,158
2022-10-11T00:49:58.595Z,141
2022-10-11T00:52:58.356Z,108
2022-10-11T00:54:58.378Z,95
2022-10-11T00:57:58.376Z,119
2022-10-11T00:59:58.368Z,138
2022-10-11T01:02:58.409Z,142
2022-10-11T01:05:58.357Z,130
2022-10-11T01:08:58.384Z,189
2022-10-11T01:10:58.389Z,91
2022-10-11T01:13:58.385Z,125
2022-10-11T01:15:58.420Z,177
2022-10-11T01:18:58.371Z,126
2022-10-11T01:21:58.437Z,156
2022-10-11T01:24:58.363Z,132
2022-10-11T01:27:58.367Z,136
2022-10-11T01:29:58.387Z,123
2022-10-11T01:32:58.369Z,138
2022-10-11T01:34:58.396Z,149
2022-10-11T01:37:58.365Z,122
2022-10-11T01:39:58.384Z,160
2022-10-11T01:42:58.374Z,150
2022-10-11T01:45:58.402Z,150
2022-10-11T01:47:58.385Z,156
2022-10-11T01:50:58.388Z,135
2022-10-11T01:52:58.369Z,120
2022-10-11T01:55:58.427Z,157
2022-10-11T01:58:58.388Z,151
2022-10-11T02:01:58.454Z,171
2022-10-11T02:03:58.366Z,122
2022-10-11T02:05:58.417Z,154
2022-10-11T02:07:58.406Z,122
2022-10-11T02:10:58.419Z,115
2022-10-11T02:12:58.441Z,125
2022-10-11T02:15:58.425Z,109
2022-10-11T02:18:58.420Z,96
2022-10-11T02:20:58.406Z,164
2022-10-11T02:22:58.441Z,133
2022-10-11T02:25:58.446Z,166
2022-10-11T02:28:58.385Z,197
2022-10-11T02:30:58.413Z,154
2022-10-11T02:33:58.424Z,135
2022-10-11T02:35:58.414Z,197
2022-10-11T02:37:58.433Z,144
2022-10-11T02:40:01.642Z,137
2022-10-11T02:41:58.632Z,113
2022-10-11T02:44:58.441Z,97
2022-10-11T02:47:58.415Z,140
2022-10-11T02:49:58.451Z,103
2022-10-11T02:52:58.404Z,113
2022-10-11T02:54:58.410Z,134
2022-10-11T02:57:58.472Z,138
2022-10-11T03:00:58.400Z,121
2022-10-11T03:03:58.435Z,95
2022-10-11T03:06:58.437Z,110
2022-10-11T03:08:58.442Z,98
2022-10-11T03:10:58.431Z,121
2022-10-11T03:12:58.442Z,172
2022-10-11T03:16:03.113Z,110
2022-10-11T03:18:58.392Z,123
2022-10-11T03:20:58.616Z,95
2022-10-11T03:23:58.405Z,106
2022-10-11T03:25:58.398Z,151
2022-10-11T03:28:58.446Z,119
2022-10-11T03:30:58.388Z,125
2022-10-11T03:33:58.445Z,132
2022-10-11T03:36:58.413Z,118
2022-10-11T03:38:58.433Z,135
2022-10-11T03:41:58.445Z,103
2022-10-11T03:44:58.412Z,123
2022-10-11T03:47:58.428Z,121
2022-10-11T03:49:58.426Z,87
2022-10-11T03:52:58.397Z,96
2022-10-11T03:55:58.424Z,105
2022-10-11T03:57:59.094Z,85
2022-10-11T04:00:58.396Z,107
2022-10-11T04:02:58.400Z,109
2022-10-11T04:05:58.402Z,128
2022-10-11T04:07:58.444Z,93
2022-10-11T04:09:58.423Z,85
2022-10-11T04:11:58.446Z,102
2022-10-11T04:14:58.412Z,87
2022-10-11T04:17:00.332Z,91
2022-10-11T04:18:58.419Z,77
2022-10-11T04:21:58.457Z,98
2022-10-11T04:24:58.396Z,91
2022-10-11T04:26:58.436Z,133
2022-10-11T04:28:58.489Z,150
2022-10-11T04:31:58.433Z,138
2022-10-11T04:33:58.417Z,103
2022-10-11T04:36:58.435Z,125
2022-10-11T04:38:58.437Z,104
2022-10-11T04:41:58.413Z,155
2022-10-11T04:43:58.430Z,151
2022-10-11T04:45:58.410Z,103
2022-10-11T04:48:58.445Z,172
2022-10-11T04:51:58.419Z,140
2022-10-11T04:53:58.431Z,110
2022-10-11T04:55:58.427Z,154
2022-10-11T04:57:58.437Z,111
2022-10-11T04:59:58.504Z,132
2022-10-11T05:02:58.446Z,106
2022-10-11T05:04:58.445Z,103
2022-10-11T05:06:58.417Z,119
2022-10-11T05:09:58.439Z,94
2022-10-11T05:11:58.430Z,66
2022-10-11T05:14:58.449Z,81
2022-10-11T05:17:58.438Z,100
2022-10-11T05:20:58.435Z,59
2022-10-11T05:23:58.435Z,133
2022-10-11T05:27:00.935Z,123
2022-10-11T05:29:58.408Z,85
2022-10-11T05:32:58.415Z,109
2022-10-11T05:35:58.436Z,82
2022-10-11T05:38:58.434Z,99
2022-10-11T05:40:59.562Z,78
2022-10-11T05:43:58.424Z,113
2022-10-11T05:45:58.427Z,38
2022-10-11T05:47:58.404Z,84
2022-10-11T05:50:58.447Z,62
2022-10-11T05:52:58.429Z,63
2022-10-11T05:54:58.436Z,51
2022-10-11T05:57:58.429Z,79
2022-10-11T05:59:58.466Z,89
2022-10-11T06:02:58.419Z,62
2022-10-11T06:04:58.517Z,67
2022-10-11T06:07:58.395Z,76
2022-10-11T06:09:58.443Z,74
2022-10-11T06:12:58.417Z,60
2022-10-11T06:14:58.422Z,40
2022-10-11T06:17:59.472Z,100
2022-10-11T06:20:58.439Z,62
2022-10-11T06:24:01.492Z,105
2022-10-11T06:26:58.443Z,58
2022-10-11T06:29:58.467Z,88
2022-10-11T06:31:58.438Z,70
2022-10-11T06:33:58.451Z,52
2022-10-11T06:35:58.447Z,79
2022-10-11T06:38:58.461Z,42
2022-10-11T06:41:58.459Z,76
2022-10-11T06:44:58.436Z,43
2022-10-11T06:46:58.449Z,59
2022-10-11T06:48:58.430Z,94
2022-10-11T06:51:58.434Z,69
2022-10-11T06:53:58.433Z,54
2022-10-11T06:56:58.468Z,82
2022-10-11T06:58:58.482Z,78
2022-10-11T07:01:58.483Z,65
2022-10-11T07:03:58.459Z,59
2022-10-11T07:06:58.500Z,59
2022-10-11T07:09:58.463Z,70
2022-10-11T07:12:58.457Z,65
2022-10-11T07:14:58.434Z,36
2022-10-11T07:17:58.506Z,54
2022-10-11T07:20:58.458Z,56
2022-10-11T07:22:58.483Z,68
2022-10-11T07:24:58.485Z,95
2022-10-11T07:27:58.457Z,97
2022-10-11T07:29:58.478Z,60
2022-10-11T07:32:58.494Z,64
2022-10-11T07:35:58.441Z,78
2022-10-11T07:37:58.480Z,100
2022-10-11T07:39:58.469Z,99
2022-10-11T07:42:58.456Z,56
2022-10-11T07:44:58.455Z,78
2022-10-11T07:46:58.478Z,66
2022-10-11T07:50:01.565Z,73
2022-10-11T07:52:58.480Z,76
2022-10-11T07:55:58.458Z,61
2022-10-11T07:57:58.467Z,53
2022-10-11T08:00:58.560Z,77
2022-10-11T08:02:58.485Z,79
2022-10-11T08:05:58.474Z,167
2022-10-11T08:08:58.569Z,63
2022-10-11T08:11:58.465Z,65
2022-10-11T08:13:58.507Z,123
2022-10-11T08:16:58.450Z,72
2022-10-11T08:18:58.481Z,86
2022-10-11T08:21:58.519Z,95
2022-10-11T08:24:58.470Z,85
2022-10-11T08:27:58.487Z,93
2022-10-11T08:29:58.477Z,101
2022-10-11T08:32:58.499Z,84
2022-10-11T08:35:58.495Z,96
2022-10-11T08:38:58.477Z,96
2022-10-11T08:41:58.485Z,48
2022-10-11T08:43:58.473Z,81
2022-10-11T08:47:00.503Z,88
2022-10-11T08:49:58.475Z,78
2022-10-11T08:51:58.485Z,72
2022-10-11T08:53:59.267Z,119
2022-10-11T08:56:58.491Z,66
2022-10-11T08:58:58.483Z,98
2022-10-11T09:03:58.517Z,130
2022-10-11T09:07:01.333Z,118
2022-10-11T09:08:58.521Z,88
2022-10-11T09:11:58.488Z,104
2022-10-11T09:14:58.542Z,42
2022-10-11T09:17:58.501Z,97
2022-10-11T09:19:58.518Z,110
2022-10-11T09:22:58.482Z,117
2022-10-11T09:25:58.490Z,74
2022-10-11T09:28:02.639Z,37
2022-10-11T09:30:58.475Z,60
2022-10-11T09:32:58.504Z,61
2022-10-11T09:35:58.524Z,84
2022-10-11T09:39:00.155Z,47
2022-10-11T09:41:58.475Z,78
2022-10-11T09:43:58.518Z,74
2022-10-11T09:46:58.483Z,73
2022-10-11T09:49:58.518Z,54
2022-10-11T09:51:58.513Z,50
2022-10-11T09:54:58.493Z,56
2022-10-11T09:57:58.476Z,80
2022-10-11T09:59:58.517Z,61
2022-10-11T10:02:58.492Z,86
2022-10-11T10:04:58.488Z,81
2022-10-11T10:06:58.484Z,67
2022-10-11T10:09:58.465Z,51
2022-10-11T10:11:58.506Z,85
2022-10-11T10:14:58.488Z,60
2022-10-11T10:17:58.481Z,61
2022-10-11T10:19:58.488Z,101
2022-10-11T10:22:58.470Z,90
2022-10-11T10:25:58.491Z,87
2022-10-11T10:27:58.551Z,55
2022-10-11T10:29:58.537Z,99
2022-10-11T10:32:14.153Z,75
2022-10-11T10:34:58.492Z,78
2022-10-11T10:37:58.515Z,84
2022-10-11T10:39:58.524Z,70
2022-10-11T10:42:58.486Z,73
2022-10-11T10:44:58.514Z,93
2022-10-11T10:47:58.479Z,56
2022-10-11T10:49:58.489Z,85
2022-10-11T10:51:58.493Z,64
2022-10-11T10:54:58.530Z,83
2022-10-11T10:57:58.502Z,84
2022-10-11T11:00:58.496Z,60
2022-10-11T11:03:58.490Z,110
2022-10-11T11:05:58.512Z,103
2022-10-11T11:07:58.489Z,98
2022-10-11T11:10:58.522Z,65
2022-10-11T11:13:58.506Z,63
2022-10-11T11:16:58.471Z,71
2022-10-11T11:18:58.492Z,70
2022-10-11T11:21:58.559Z,83
2022-10-11T11:24:58.494Z,59
2022-10-11T11:26:58.528Z,91
2022-10-11T11:28:58.500Z,89
2022-10-11T11:31:58.529Z,61
2022-10-11T11:34:58.498Z,59
2022-10-11T11:36:58.592Z,53
2022-10-11T11:39:58.483Z,76
2022-10-11T11:41:58.526Z,59
2022-10-11T11:44:58.504Z,45
2022-10-11T11:46:58.554Z,43
2022-10-11T11:48:58.529Z,64
2022-10-11T11:52:01.631Z,63
2022-10-11T11:55:02.946Z,93
2022-10-11T11:58:00.222Z,47
2022-10-11T11:59:58.501Z,62
2022-10-11T12:02:58.517Z,82
2022-10-11T12:05:58.495Z,82
2022-10-11T12:08:58.478Z,58
2022-10-11T12:10:58.499Z,37
2022-10-11T12:12:58.529Z,44
2022-10-11T12:15:58.516Z,65
2022-10-11T12:17:58.547Z,73
2022-10-11T12:20:58.512Z,46
2022-10-11T12:22:58.574Z,26
2022-10-11T12:25:58.561Z,32
2022-10-11T12:28:58.541Z,47
2022-10-11T12:31:58.508Z,37
2022-10-11T12:34:58.521Z,55
2022-10-11T12:36:59.657Z,57
2022-10-11T12:39:58.538Z,29
2022-10-11T12:42:58.523Z,54
2022-10-11T12:44:58.528Z,55
2022-10-11T12:47:58.547Z,71
2022-10-11T12:51:02.216Z,79
2022-10-11T12:52:58.552Z,67
2022-10-11T12:55:58.542Z,48
2022-10-11T12:57:58.858Z,59
2022-10-11T13:00:58.549Z,50
2022-10-11T13:03:58.583Z,64
2022-10-11T13:07:00.221Z,69
2022-10-11T13:08:58.562Z,52
2022-10-11T13:11:58.526Z,37
2022-10-11T13:13:58.575Z,43
2022-10-11T13:15:58.554Z,55
2022-10-11T13:18:58.536Z,45
2022-10-11T13:20:58.528Z,50
2022-10-11T13:22:58.567Z,55
2022-10-11T13:25:58.508Z,63
2022-10-11T13:27:58.550Z,83
2022-10-11T13:30:58.551Z,42
2022-10-11T13:33:58.543Z,56
2022-10-11T13:35:58.571Z,41
2022-10-11T13:38:58.547Z,172
2022-10-11T13:40:58.574Z,57
2022-10-11T13:42:58.568Z,64
2022-10-11T13:45:58.566Z,43
2022-10-11T13:47:58.558Z,46
2022-10-11T13:50:59.020Z,82
2022-10-11T13:53:58.532Z,61
2022-10-11T13:55:58.574Z,53
2022-10-11T13:57:58.575Z,104
2022-10-11T14:00:58.604Z,74
2022-10-11T14:03:58.562Z,66
2022-10-11T14:05:58.573Z,92
2022-10-11T14:08:58.582Z,64
2022-10-11T14:11:00.341Z,74
2022-10-11T14:13:58.579Z,77
2022-10-11T14:15:58.603Z,67
2022-10-11T14:18:58.596Z,66
2022-10-11T14:21:58.560Z,42
2022-10-11T14:23:58.578Z,77
2022-10-11T14:26:58.556Z,102
2022-10-11T14:28:58.531Z,62
2022-10-11T14:33:58.582Z,85
2022-10-11T14:36:58.547Z,61
2022-10-11T14:38:58.549Z,42
2022-10-11T14:42:01.634Z,71
2022-10-11T14:44:58.551Z,70
2022-10-11T14:46:58.568Z,70
2022-10-11T14:48:58.555Z,55
2022-10-11T14:50:58.575Z,61
2022-10-11T14:53:58.586Z,64
2022-10-11T14:56:58.552Z,50
2022-10-11T14:58:58.571Z,74
2022-10-11T15:00:58.580Z,125
2022-10-11T15:04:14.279Z,45
2022-10-11T15:06:58.554Z,52
2022-10-11T15:09:58.578Z,54
2022-10-11T15:12:58.594Z,47
2022-10-11T15:15:58.579Z,33
2022-10-11T15:17:58.586Z,58
2022-10-11T15:20:58.558Z,55
2022-10-11T15:22:58.589Z,51
2022-10-11T15:24:58.554Z,68
2022-10-11T15:27:58.597Z,60
2022-10-11T15:30:58.566Z,103
2022-10-11T15:32:58.592Z,47
2022-10-11T15:35:58.576Z,59
2022-10-11T15:38:58.596Z,57
2022-10-11T15:40:58.567Z,48
2022-10-11T15:43:58.586Z,74
2022-10-11T15:45:58.594Z,83
2022-10-11T15:47:58.601Z,34
2022-10-11T15:49:58.605Z,83
2022-10-11T15:52:58.586Z,54
2022-10-11T15:55:14.110Z,68
2022-10-11T15:57:58.583Z,109
2022-10-11T15:59:58.648Z,71
2022-10-11T16:02:58.596Z,59
2022-10-11T16:04:58.610Z,30
2022-10-11T16:06:58.586Z,38
2022-10-11T16:09:58.646Z,56
2022-10-11T16:11:58.602Z,54
2022-10-11T16:14:58.610Z,91
2022-10-11T16:17:01.712Z,39
2022-10-11T16:19:58.692Z,70
2022-10-11T16:22:58.582Z,56
2022-10-11T16:25:58.580Z,53
2022-10-11T16:27:58.603Z,67
2022-10-11T16:29:58.620Z,38
2022-10-11T16:32:58.611Z,71
2022-10-11T16:34:58.599Z,92
2022-10-11T16:37:58.619Z,94
2022-10-11T16:40:58.617Z,79
2022-10-11T16:42:58.606Z,100
2022-10-11T16:45:58.608Z,106
2022-10-11T16:47:58.603Z,70
2022-10-11T16:50:58.606Z,61
2022-10-11T16:52:58.634Z,111
2022-10-11T16:54:58.620Z,84
2022-10-11T16:57:58.596Z,103
2022-10-11T16:59:58.636Z,82
2022-10-11T17:02:58.651Z,54
2022-10-11T17:05:58.581Z,95
2022-10-11T17:07:58.632Z,78
2022-10-11T17:10:58.630Z,87
2022-10-11T17:13:58.623Z,66
2022-10-11T17:16:58.595Z,63
2022-10-11T17:18:58.646Z,58
2022-10-11T17:21:58.581Z,127
2022-10-11T17:23:58.640Z,56
2022-10-11T17:26:58.586Z,70
2022-10-11T17:28:58.667Z,70
2022-10-11T17:31:58.612Z,93
2022-10-11T17:34:58.626Z,42
2022-10-11T17:36:58.607Z,67
2022-10-11T17:39:58.617Z,58
2022-10-11T17:41:58.590Z,57
2022-10-11T17:43:58.622Z,89
2022-10-11T17:45:58.677Z,81
2022-10-11T17:48:58.631Z,76
2022-10-11T17:51:58.609Z,59
2022-10-11T17:53:58.610Z,68
2022-10-11T17:55:58.633Z,73
2022-10-11T17:57:58.656Z,110
2022-10-11T18:00:58.608Z,75
2022-10-11T18:02:58.632Z,92
2022-10-11T18:04:58.642Z,69
2022-10-11T18:07:58.644Z,84
2022-10-11T18:09:58.613Z,68
2022-10-11T18:13:00.224Z,96
2022-10-11T18:14:58.643Z,71
2022-10-11T18:17:58.683Z,95
2022-10-11T18:19:58.673Z,66
2022-10-11T18:22:58.644Z,62
2022-10-11T18:24:58.634Z,66
2022-10-11T18:27:58.646Z,78
2022-10-11T18:30:58.618Z,49
2022-10-11T18:33:58.645Z,80
2022-10-11T18:35:58.637Z,44
2022-10-11T18:38:00.849Z,46
2022-10-11T18:39:58.635Z,33
2022-10-11T18:41:58.633Z,57
2022-10-11T18:43:58.663Z,78
2022-10-11T18:46:58.634Z,66
2022-10-11T18:49:58.639Z,78
2022-10-11T18:51:58.711Z,53
2022-10-11T18:54:58.648Z,111
2022-10-11T18:56:58.617Z,65
2022-10-11T18:58:58.713Z,72
2022-10-11T19:01:58.658Z,53
2022-10-11T19:03:58.633Z,56
2022-10-11T19:05:58.659Z,72
2022-10-11T19:08:58.683Z,94
2022-10-11T19:10:58.683Z,86
2022-10-11T19:13:58.602Z,51
2022-10-11T19:16:58.681Z,63
2022-10-11T19:19:58.650Z,63
2022-10-11T19:22:58.669Z,60
2022-10-11T19:25:31.076Z,65
2022-10-11T19:27:58.611Z,68
2022-10-11T19:29:58.641Z,57
2022-10-11T19:31:58.648Z,55
2022-10-11T19:34:58.652Z,70
2022-10-11T19:37:58.663Z,78
2022-10-11T19:40:58.675Z,59
2022-10-11T19:43:58.627Z,62
2022-10-11T19:45:58.622Z,83
2022-10-11T19:47:58.620Z,64
2022-10-11T19:49:58.662Z,84
2022-10-11T19:52:58.705Z,111
2022-10-11T19:55:58.627Z,51
2022-10-11T19:57:58.678Z,112
2022-10-11T20:00:58.642Z,66
2022-10-11T20:02:58.660Z,56
2022-10-11T20:04:58.671Z,55
2022-10-11T20:07:58.623Z,67
2022-10-11T20:10:58.638Z,60
2022-10-11T20:12:58.658Z,49
2022-10-11T20:14:58.677Z,66
2022-10-11T20:17:58.630Z,86
2022-10-11T20:20:58.699Z,46
2022-10-11T20:23:58.641Z,55
2022-10-11T20:26:58.961Z,78
2022-10-11T20:29:58.683Z,42
2022-10-11T20:32:58.674Z,64
2022-10-11T20:35:58.657Z,70
2022-10-11T20:37:58.689Z,52
2022-10-11T20:40:58.681Z,51
2022-10-11T20:43:58.688Z,49
2022-10-11T20:47:03.078Z,62
2022-10-11T20:49:58.659Z,61
2022-10-11T20:51:58.637Z,55
2022-10-11T20:54:58.652Z,65
2022-10-11T20:56:58.640Z,53
2022-10-11T20:59:58.658Z,51
2022-10-11T21:02:58.669Z,103
2022-10-11T21:05:58.671Z,48
2022-10-11T21:08:59.714Z,96
2022-10-11T21:11:58.634Z,81
2022-10-11T21:13:58.654Z,65
2022-10-11T21:15:58.646Z,77
2022-10-11T21:18:58.676Z,58
2022-10-11T21:21:58.645Z,59
2022-10-11T21:23:58.685Z,37
2022-10-11T21:27:00.708Z,50
2022-10-11T21:29:58.665Z,65
2022-10-11T21:31:58.659Z,58
2022-10-11T21:33:58.665Z,56
2022-10-11T21:36:58.672Z,87
2022-10-11T21:38:58.665Z,63
2022-10-11T21:41:58.654Z,67
2022-10-11T21:43:58.700Z,62
2022-10-11T21:47:06.895Z,55
2022-10-11T21:48:58.682Z,40
2022-10-11T21:51:58.656Z,68
2022-10-11T21:54:58.683Z,55
2022-10-11T21:57:58.661Z,59
2022-10-11T22:00:58.754Z,94
2022-10-11T22:03:58.883Z,94
2022-10-11T22:05:58.635Z,55
2022-10-11T22:08:58.678Z,59
2022-10-11T22:10:58.693Z,53
2022-10-11T22:13:58.675Z,72
2022-10-11T22:15:58.663Z,73
2022-10-11T22:17:58.663Z,64
2022-10-11T22:20:58.666Z,67
2022-10-11T22:22:58.689Z,58
2022-10-11T22:25:05.884Z,72
2022-10-11T22:28:58.960Z,62
2022-10-11T22:33:01.872Z,86
2022-10-11T22:35:58.915Z,76
2022-10-11T22:38:58.735Z,87
2022-10-11T22:41:58.711Z,74
2022-10-11T22:44:58.704Z,64
2022-10-11T22:47:58.684Z,46
2022-10-11T22:49:58.728Z,58
2022-10-11T22:51:58.704Z,40
2022-10-11T22:53:58.726Z,58
2022-10-11T22:56:58.704Z,42
2022-10-11T22:59:58.726Z,65
2022-10-11T23:02:58.708Z,60
2022-10-11T23:04:58.771Z,83
2022-10-11T23:07:59.254Z,51
2022-10-11T23:10:58.703Z,71
2022-10-11T23:12:58.719Z,75
2022-10-11T23:15:58.776Z,36
2022-10-11T23:18:58.696Z,51
2022-10-11T23:20:58.744Z,91
2022-10-11T23:23:58.701Z,53
2022-10-11T23:25:58.747Z,65
2022-10-11T23:28:58.707Z,103
2022-10-11T23:31:58.709Z,47
2022-10-11T23:33:58.726Z,71
2022-10-11T23:36:58.733Z,78
2022-10-11T23:39:58.748Z,58
2022-10-11T23:42:58.684Z,59
2022-10-11T23:45:58.816Z,51
2022-10-11T23:48:58.708Z,51
2022-10-11T23:51:58.719Z,92
2022-10-11T23:54:58.729Z,70
2022-10-11T23:57:58.667Z,86
2022-10-11T23:59:58.699Z,51
